Time;durP1;ratioP1;P1;durP2;ratioP2;P2;SDS_P1;SDS_P2;PMS_P1;PMS_P2;Temp;Humidity;BMP_temperature;BMP_pressure;BME280_temperature;BME280_humidity;BME280_pressure;Samples;Min_cycle;Max_cycle;Signal;HPM_P1;HPM_P2
2024/01/20 00:01:59;;;;;;;;;;;102.70;2227.20;;;;;;5016470;28;19932;-81
2024/01/20 00:04:25;;;;;;;;;;;102.80;2227.20;;;;;;5037765;28;19916;-82
2024/01/20 00:06:50;;;;;;;;;;;102.70;2227.20;;;;;;5013086;28;19913;-81
2024/01/20 00:09:16;;;;;;;;;;;102.60;2227.20;;;;;;5034406;28;19909;-79
2024/01/20 00:11:42;;;;;;;;;;;102.70;2227.20;;;;;;5013012;28;20316;-81
2024/01/20 00:14:07;;;;;;;;;;;102.60;2227.20;;;;;;5016131;28;19963;-82
2024/01/20 00:16:33;;;;;;;;;;;102.60;2227.20;;;;;;5033333;28;19967;-80
2024/01/20 00:18:59;;;;;;;;;;;102.40;2227.20;;;;;;5015699;28;19913;-81
2024/01/20 00:21:24;;;;;;;;;;;102.40;2227.20;;;;;;5016992;28;19909;-82
2024/01/20 00:23:50;;;;;;;;;;;102.40;2227.20;;;;;;5012093;28;19956;-82
2024/01/20 00:26:15;;;;;;;;;;;102.50;2227.20;;;;;;5016089;28;19921;-81
2024/01/20 00:28:44;;;;;;;;;;;102.50;2227.20;;;;;;5005508;28;19921;-80
2024/01/20 00:31:09;;;;;;;;;;;102.40;2227.20;;;;;;5005238;28;20362;-79
2024/01/20 00:33:35;;;;;;;;;;;102.40;2227.20;;;;;;5016350;28;19909;-80
2024/01/20 00:36:00;;;;;;;;;;;77.70;2227.20;;;;;;5014629;28;19917;-81
2024/01/20 00:38:27;;;;;;;;;;;77.60;2227.20;;;;;;5006085;28;19940;-80
2024/01/20 00:40:53;;;;;;;;;;;77.50;2227.20;;;;;;5013882;28;19909;-80
2024/01/20 00:43:18;;;;;;;;;;;77.50;2227.20;;;;;;5011984;28;20411;-80
2024/01/20 00:45:45;;;;;;;;;;;77.60;2227.20;;;;;;5011615;28;19909;-82
2024/01/20 00:48:11;;;;;;;;;;;77.60;2227.20;;;;;;5006702;28;19913;-81
2024/01/20 00:50:36;;;;;;;;;;;77.60;2227.20;;;;;;5008229;28;19910;-80
2024/01/20 00:53:02;;;;;;;;;;;77.40;2227.20;;;;;;5005041;28;19968;-80
2024/01/20 00:55:28;;;;;;;;;;;77.60;2227.20;;;;;;5009889;28;19936;-82
2024/01/20 00:57:53;;;;;;;;;;;77.50;2227.20;;;;;;5017296;28;20373;-80
2024/01/20 01:00:19;;;;;;;;;;;77.60;2227.20;;;;;;5009514;28;19913;-81
2024/01/20 01:02:45;;;;;;;;;;;77.60;2227.20;;;;;;4997641;28;19910;-81
2024/01/20 01:05:10;;;;;;;;;;;77.50;2227.20;;;;;;4997559;28;19917;-81
2024/01/20 01:07:36;;;;;;;;;;;77.50;2227.20;;;;;;5030380;28;20263;-81
2024/01/20 01:10:06;;;;;;;;;;;77.40;2227.20;;;;;;4997998;28;20412;-82
2024/01/20 01:12:32;;;;;;;;;;;77.40;2227.20;;;;;;4998118;28;20020;-82
2024/01/20 01:14:58;;;;;;;;;;;77.50;2227.20;;;;;;4998844;28;19909;-81
2024/01/20 01:17:24;;;;;;;;;;;77.50;2227.20;;;;;;4998522;28;19935;-81
2024/01/20 01:19:49;;;;;;;;;;;77.50;2227.20;;;;;;5049278;28;19897;-81
2024/01/20 01:22:15;;;;;;;;;;;77.50;2227.20;;;;;;5041561;28;19904;-81
2024/01/20 01:24:40;;;;;;;;;;;77.30;2227.20;;;;;;5026118;28;19917;-81
2024/01/20 01:27:06;;;;;;;;;;;77.30;2227.20;;;;;;5016867;28;20292;-81
2024/01/20 01:29:31;;;;;;;;;;;77.30;2227.20;;;;;;5017249;28;19920;-81
2024/01/20 01:31:57;;;;;;;;;;;77.40;2227.20;;;;;;5034506;28;19948;-81
2024/01/20 01:34:23;;;;;;;;;;;77.40;2227.20;;;;;;5049562;28;19916;-81
2024/01/20 01:36:49;;;;;;;;;;;77.40;2227.20;;;;;;5017167;28;19917;-81
2024/01/20 01:39:17;;;;;;;;;;;77.40;2227.20;;;;;;5018565;28;19913;-81
2024/01/20 01:41:43;;;;;;;;;;;77.20;2227.20;;;;;;5019681;28;20328;-81
2024/01/20 01:44:09;;;;;;;;;;;77.10;2227.20;;;;;;5020660;28;19910;-81
2024/01/20 01:46:34;;;;;;;;;;;77.30;2227.20;;;;;;5052935;28;19909;-81
2024/01/20 01:49:00;;;;;;;;;;;77.30;2227.20;;;;;;5013311;28;19919;-81
2024/01/20 01:51:26;;;;;;;;;;;77.30;2227.20;;;;;;5053380;28;19909;-81
2024/01/20 01:53:52;;;;;;;;;;;77.40;2227.20;;;;;;5053581;28;19925;-81
2024/01/20 01:56:19;;;;;;;;;;;77.30;2227.20;;;;;;5052988;28;19925;-80
2024/01/20 01:58:45;;;;;;;;;;;77.40;2227.20;;;;;;5037571;28;19909;-80
2024/01/20 02:01:11;;;;;;;;;;;77.30;2227.20;;;;;;5019627;28;20361;-79
2024/01/20 02:03:37;;;;;;;;;;;77.50;2227.20;;;;;;5020111;28;19909;-79
2024/01/20 02:06:03;;;;;;;;;;;102.40;2227.20;;;;;;5019787;28;19916;-79
2024/01/20 02:08:29;;;;;;;;;;;77.50;2227.20;;;;;;5019924;28;20304;-80
2024/01/20 02:10:55;;;;;;;;;;;77.70;2227.20;;;;;;5019584;28;19910;-79
2024/01/20 02:13:21;;;;;;;;;;;77.70;2227.20;;;;;;5019567;28;20330;-80
2024/01/20 02:15:47;;;;;;;;;;;102.40;2227.20;;;;;;5009346;28;19928;-80
2024/01/20 02:18:12;;;;;;;;;;;102.60;2227.20;;;;;;5018504;28;19909;-79
2024/01/20 02:20:38;;;;;;;;;;;102.80;2227.20;;;;;;5035597;28;19916;-80
2024/01/20 02:23:04;;;;;;;;;;;102.80;2227.20;;;;;;5018912;28;19988;-80
2024/01/20 02:25:29;;;;;;;;;;;102.50;2227.20;;;;;;5019638;28;19917;-80
2024/01/20 02:27:55;;;;;;;;;;;102.40;2227.20;;;;;;5019020;28;19909;-80
2024/01/20 02:30:20;;;;;;;;;;;77.70;2227.20;;;;;;5036821;28;19972;-80
2024/01/20 02:32:46;;;;;;;;;;;77.70;2227.20;;;;;;5019124;28;19909;-80
2024/01/20 02:35:12;;;;;;;;;;;77.60;2227.20;;;;;;5019691;28;19917;-81
2024/01/20 02:37:37;;;;;;;;;;;77.50;2227.20;;;;;;5019331;28;20388;-81
2024/01/20 02:40:03;;;;;;;;;;;77.40;2227.20;;;;;;5019635;28;19909;-81
2024/01/20 02:42:29;;;;;;;;;;;77.30;2227.20;;;;;;5018986;28;19940;-81
2024/01/20 02:44:54;;;;;;;;;;;77.30;2227.20;;;;;;5013188;28;19913;-81
2024/01/20 02:47:20;;;;;;;;;;;77.40;2227.20;;;;;;5031798;28;19909;-81
2024/01/20 02:49:45;;;;;;;;;;;77.30;2227.20;;;;;;5018945;28;20328;-81
2024/01/20 02:52:11;;;;;;;;;;;77.20;2227.20;;;;;;5018967;28;19917;-81
2024/01/20 02:54:37;;;;;;;;;;;77.20;2227.20;;;;;;5036575;28;19917;-81
2024/01/20 02:57:03;;;;;;;;;;;77.20;2227.20;;;;;;5018879;28;20000;-81
2024/01/20 02:59:29;;;;;;;;;;;77.20;2227.20;;;;;;5019097;28;19913;-81
2024/01/20 03:01:54;;;;;;;;;;;77.40;2227.20;;;;;;5051583;28;19971;-81
2024/01/20 03:04:20;;;;;;;;;;;77.30;2227.20;;;;;;5019062;28;19909;-81
2024/01/20 03:06:46;;;;;;;;;;;77.30;2227.20;;;;;;5036293;28;19909;-80
2024/01/20 03:09:14;;;;;;;;;;;77.20;2227.20;;;;;;5036066;28;19955;-80
2024/01/20 03:11:41;;;;;;;;;;;77.30;2227.20;;;;;;5051778;28;19910;-80
2024/01/20 03:14:06;;;;;;;;;;;77.30;2227.20;;;;;;5018805;28;19909;-80
2024/01/20 03:16:32;;;;;;;;;;;77.20;2227.20;;;;;;5046208;28;20296;-80
2024/01/20 03:18:57;;;;;;;;;;;77.30;2227.20;;;;;;5018755;28;19909;-81
2024/01/20 03:21:23;;;;;;;;;;;77.40;2227.20;;;;;;5018398;28;19909;-81
2024/01/20 03:23:49;;;;;;;;;;;77.50;2227.20;;;;;;5008134;28;19925;-80
2024/01/20 03:26:14;;;;;;;;;;;77.60;2227.20;;;;;;5015491;28;19917;-80
2024/01/20 03:28:40;;;;;;;;;;;77.60;2227.20;;;;;;5018261;28;19909;-80
2024/01/20 03:31:06;;;;;;;;;;;77.50;2227.20;;;;;;5034017;28;19910;-79
2024/01/20 03:33:32;;;;;;;;;;;77.50;2227.20;;;;;;5017799;28;19917;-79
2024/01/20 03:35:57;;;;;;;;;;;77.40;2227.20;;;;;;5034488;28;19991;-81
2024/01/20 03:38:23;;;;;;;;;;;77.40;2227.20;;;;;;5018702;28;20284;-81
2024/01/20 03:40:50;;;;;;;;;;;77.20;2227.20;;;;;;5018249;28;19979;-81
2024/01/20 03:43:16;;;;;;;;;;;77.30;2227.20;;;;;;5035703;28;19944;-80
2024/01/20 03:45:42;;;;;;;;;;;77.50;2227.20;;;;;;5017960;28;19913;-80
2024/01/20 03:48:08;;;;;;;;;;;77.40;2227.20;;;;;;5017928;28;19909;-80
2024/01/20 03:50:34;;;;;;;;;;;77.40;2227.20;;;;;;5017761;28;19909;-80
2024/01/20 03:52:59;;;;;;;;;;;77.30;2227.20;;;;;;5017778;28;19913;-80
2024/01/20 03:55:25;;;;;;;;;;;77.30;2227.20;;;;;;5017609;28;19932;-80
2024/01/20 03:57:50;;;;;;;;;;;77.30;2227.20;;;;;;5017893;28;20346;-80
2024/01/20 04:00:16;;;;;;;;;;;77.20;2227.20;;;;;;5034702;28;19963;-81
2024/01/20 04:02:42;;;;;;;;;;;77.10;2227.20;;;;;;5017792;28;20281;-80
2024/01/20 04:05:08;;;;;;;;;;;77.20;2227.20;;;;;;5014004;28;19917;-81
2024/01/20 04:07:33;;;;;;;;;;;77.10;2227.20;;;;;;5008632;28;19909;-81
2024/01/20 04:09:59;;;;;;;;;;;77.20;2227.20;;;;;;5035210;28;19909;-82
2024/01/20 04:12:25;;;;;;;;;;;77.10;2227.20;;;;;;5017759;28;20000;-81
2024/01/20 04:14:50;;;;;;;;;;;77.10;2227.20;;;;;;5017376;28;19953;-81
2024/01/20 04:17:16;;;;;;;;;;;77.20;2227.20;;;;;;5017446;28;20006;-81
2024/01/20 04:19:42;;;;;;;;;;;77.00;2227.20;;;;;;5017489;28;19909;-81
2024/01/20 04:22:07;;;;;;;;;;;77.00;2227.20;;;;;;5017836;28;19916;-81
2024/01/20 04:24:33;;;;;;;;;;;77.00;2227.20;;;;;;5031620;28;19964;-81
2024/01/20 04:26:58;;;;;;;;;;;77.00;2227.20;;;;;;5008043;28;19952;-81
2024/01/20 04:29:24;;;;;;;;;;;76.90;2227.20;;;;;;5018178;28;20004;-80
2024/01/20 04:31:50;;;;;;;;;;;77.10;2227.20;;;;;;5018163;28;19913;-80
2024/01/20 04:34:15;;;;;;;;;;;77.10;2227.20;;;;;;5029759;28;19928;-80
2024/01/20 04:36:41;;;;;;;;;;;77.20;2227.20;;;;;;5074675;28;19905;-78
2024/01/20 04:39:06;;;;;;;;;;;77.20;2227.20;;;;;;5030693;28;20369;-79
2024/01/20 04:41:32;;;;;;;;;;;77.00;2227.20;;;;;;5050369;28;19913;-80
2024/01/20 04:43:58;;;;;;;;;;;77.00;2227.20;;;;;;5016960;28;20304;-80
2024/01/20 04:46:23;;;;;;;;;;;77.00;2227.20;;;;;;5017218;28;20405;-80
2024/01/20 04:48:49;;;;;;;;;;;77.10;2227.20;;;;;;5016489;28;19909;-80
2024/01/20 04:51:14;;;;;;;;;;;77.20;2227.20;;;;;;5016835;28;20392;-81
2024/01/20 04:53:40;;;;;;;;;;;77.20;2227.20;;;;;;5049120;28;20358;-80
2024/01/20 04:56:06;;;;;;;;;;;77.10;2227.20;;;;;;5016477;28;19932;-80
2024/01/20 04:58:32;;;;;;;;;;;77.20;2227.20;;;;;;5016945;28;19963;-80
2024/01/20 05:00:57;;;;;;;;;;;77.10;2227.20;;;;;;5016644;28;19972;-80
2024/01/20 05:03:23;;;;;;;;;;;77.20;2227.20;;;;;;5016319;28;20281;-80
2024/01/20 05:05:49;;;;;;;;;;;77.20;2227.20;;;;;;5016796;28;19916;-80
2024/01/20 05:08:14;;;;;;;;;;;77.20;2227.20;;;;;;5016576;28;20022;-80
2024/01/20 05:10:40;;;;;;;;;;;77.10;2227.20;;;;;;5016746;28;20365;-80
2024/01/20 05:13:05;;;;;;;;;;;76.80;2227.20;;;;;;5019585;28;19913;-80
2024/01/20 05:15:31;;;;;;;;;;;52.00;2227.20;;;;;;5020731;28;20395;-80
2024/01/20 05:17:57;;;;;;;;;;;52.10;2227.20;;;;;;5020385;28;19909;-80
2024/01/20 05:20:22;;;;;;;;;;;52.00;2227.20;;;;;;5020697;28;19956;-80
2024/01/20 05:22:48;;;;;;;;;;;52.10;2227.20;;;;;;5053617;28;19909;-80
2024/01/20 05:25:14;;;;;;;;;;;52.10;2227.20;;;;;;5037894;28;19917;-80
2024/01/20 05:27:40;;;;;;;;;;;52.10;2227.20;;;;;;5020737;28;19909;-80
2024/01/20 05:30:06;;;;;;;;;;;76.80;2227.20;;;;;;5020385;28;20353;-80
2024/01/20 05:32:31;;;;;;;;;;;76.80;2227.20;;;;;;5020088;28;19909;-80
2024/01/20 05:34:57;;;;;;;;;;;76.80;2227.20;;;;;;5020543;28;19910;-81
2024/01/20 05:37:22;;;;;;;;;;;76.80;2227.20;;;;;;5053679;28;19924;-81
2024/01/20 05:39:48;;;;;;;;;;;52.10;2227.20;;;;;;5020335;28;20002;-80
2024/01/20 05:42:14;;;;;;;;;;;76.80;2227.20;;;;;;5020001;28;19909;-80
2024/01/20 05:44:39;;;;;;;;;;;52.10;2227.20;;;;;;5020280;28;20354;-80
2024/01/20 05:47:05;;;;;;;;;;;52.10;2227.20;;;;;;5020278;28;19909;-80
2024/01/20 05:49:31;;;;;;;;;;;52.10;2227.20;;;;;;5020229;28;19913;-80
2024/01/20 05:51:56;;;;;;;;;;;52.10;2227.20;;;;;;5019915;28;19915;-80
2024/01/20 05:54:22;;;;;;;;;;;52.00;2227.20;;;;;;5052945;28;19936;-80
2024/01/20 05:56:47;;;;;;;;;;;52.00;2227.20;;;;;;5020008;28;19953;-78
2024/01/20 05:59:13;;;;;;;;;;;52.00;2227.20;;;;;;5019682;28;20357;-78
2024/01/20 06:01:38;;;;;;;;;;;52.00;2227.20;;;;;;5037031;28;19909;-79
2024/01/20 06:04:04;;;;;;;;;;;52.10;2227.20;;;;;;5019522;28;19915;-78
2024/01/20 06:06:30;;;;;;;;;;;52.10;2227.20;;;;;;5019154;28;19932;-79
2024/01/20 06:08:55;;;;;;;;;;;52.00;2227.20;;;;;;5036828;28;20293;-79
2024/01/20 06:11:23;;;;;;;;;;;52.00;2227.20;;;;;;5019592;28;20258;-78
2024/01/20 06:13:49;;;;;;;;;;;52.10;2227.20;;;;;;5019407;28;19953;-78
2024/01/20 06:16:15;;;;;;;;;;;51.90;2227.20;;;;;;5019129;28;19972;-78
2024/01/20 06:18:40;;;;;;;;;;;51.90;2227.20;;;;;;5020793;28;19913;-80
2024/01/20 06:21:06;;;;;;;;;;;52.10;2227.20;;;;;;5028117;28;19932;-80
2024/01/20 06:23:31;;;;;;;;;;;51.90;2227.20;;;;;;5051928;28;20366;-80
2024/01/20 06:25:59;;;;;;;;;;;51.90;2227.20;;;;;;5036820;28;19963;-79
2024/01/20 06:28:25;;;;;;;;;;;51.90;2227.20;;;;;;5019146;28;20345;-80
2024/01/20 06:30:51;;;;;;;;;;;52.10;2227.20;;;;;;5019213;28;19913;-80
2024/01/20 06:33:17;;;;;;;;;;;76.90;2227.20;;;;;;5019125;28;19933;-78
2024/01/20 06:35:43;;;;;;;;;;;52.10;2227.20;;;;;;5019317;28;19944;-81
2024/01/20 06:38:08;;;;;;;;;;;52.10;2227.20;;;;;;5019357;28;19909;-78
2024/01/20 06:40:34;;;;;;;;;;;52.00;2227.20;;;;;;5018920;28;19917;-80
2024/01/20 06:42:59;;;;;;;;;;;52.00;2227.20;;;;;;5019038;28;19959;-79
2024/01/20 06:45:25;;;;;;;;;;;51.90;2227.20;;;;;;5019002;28;20331;-83
2024/01/20 06:47:50;;;;;;;;;;;51.90;2227.20;;;;;;5019509;28;20362;-82
2024/01/20 06:50:16;;;;;;;;;;;51.80;2227.20;;;;;;5015170;28;19914;-84
2024/01/20 06:52:42;;;;;;;;;;;51.70;2227.20;;;;;;5018321;28;19920;-80
2024/01/20 06:55:08;;;;;;;;;;;51.70;2227.20;;;;;;5014410;28;19970;-83
2024/01/20 06:57:33;;;;;;;;;;;51.70;2227.20;;;;;;5018531;28;19964;-81
2024/01/20 06:59:59;;;;;;;;;;;51.70;2227.20;;;;;;5035920;28;19909;-79
2024/01/20 07:02:24;;;;;;;;;;;51.60;2227.20;;;;;;5018697;28;20032;-84
2024/01/20 07:04:50;;;;;;;;;;;51.60;2227.20;;;;;;5017541;28;19909;-80
2024/01/20 07:07:16;;;;;;;;;;;51.60;2227.20;;;;;;5019018;28;19909;-87
2024/01/20 07:09:41;;;;;;;;;;;51.60;2227.20;;;;;;5018456;28;19999;-84
2024/01/20 07:12:08;;;;;;;;;;;51.60;2227.20;;;;;;5014023;28;19916;-82
2024/01/20 07:14:35;;;;;;;;;;;51.60;2227.20;;;;;;5034864;28;19972;-84
2024/01/20 07:17:01;;;;;;;;;;;51.70;2227.20;;;;;;5035870;28;19924;-80
2024/01/20 07:19:27;;;;;;;;;;;51.80;2227.20;;;;;;5035440;28;19909;-83
2024/01/20 07:21:52;;;;;;;;;;;51.90;2227.20;;;;;;5018406;28;19913;-85
2024/01/20 07:24:18;;;;;;;;;;;51.90;2227.20;;;;;;5034422;28;20296;-80
2024/01/20 07:26:43;;;;;;;;;;;51.90;2227.20;;;;;;5017649;28;20363;-83
2024/01/20 07:29:09;;;;;;;;;;;52.10;2227.20;;;;;;5015917;28;19917;-82
2024/01/20 07:31:34;;;;;;;;;;;52.00;2227.20;;;;;;5048799;28;19932;-80
2024/01/20 07:34:00;;;;;;;;;;;76.90;2227.20;;;;;;5014272;28;19913;-80
2024/01/20 07:36:26;;;;;;;;;;;77.00;2227.20;;;;;;5049152;28;19918;-81
2024/01/20 07:38:51;;;;;;;;;;;77.20;2227.20;;;;;;5017719;28;19913;-81
2024/01/20 07:41:18;;;;;;;;;;;77.00;2227.20;;;;;;5018541;28;19928;-85
2024/01/20 07:43:43;;;;;;;;;;;77.20;2227.20;;;;;;5031572;28;19948;-84
2024/01/20 07:46:10;;;;;;;;;;;77.10;2227.20;;;;;;5017394;28;19918;-85
2024/01/20 07:48:35;;;;;;;;;;;77.00;2227.20;;;;;;5023612;28;19963;-83
2024/01/20 07:51:01;;;;;;;;;;;76.90;2227.20;;;;;;5047939;28;19913;-85
2024/01/20 07:53:28;;;;;;;;;;;76.90;2227.20;;;;;;5018712;28;19916;-84
2024/01/20 07:55:53;;;;;;;;;;;77.00;2227.20;;;;;;5015056;28;20016;-85
2024/01/20 07:58:19;;;;;;;;;;;77.20;2227.20;;;;;;5017794;28;19949;-82
2024/01/20 08:00:44;;;;;;;;;;;77.30;2227.20;;;;;;5014452;28;19956;-82
2024/01/20 08:03:10;;;;;;;;;;;77.40;2227.20;;;;;;5014107;28;19909;-82
2024/01/20 08:05:36;;;;;;;;;;;77.40;2227.20;;;;;;5013605;28;19913;-81
2024/01/20 08:08:02;;;;;;;;;;;77.20;2227.20;;;;;;5013771;28;19920;-81
2024/01/20 08:10:28;;;;;;;;;;;77.60;2227.20;;;;;;5012884;28;19910;-84
2024/01/20 08:12:53;;;;;;;;;;;77.40;2227.20;;;;;;5014163;28;19910;-84
2024/01/20 08:15:19;;;;;;;;;;;77.30;2227.20;;;;;;5013627;28;19925;-80
2024/01/20 08:17:44;;;;;;;;;;;77.20;2227.20;;;;;;5014209;28;19909;-84
2024/01/20 08:20:10;;;;;;;;;;;77.20;2227.20;;;;;;5001253;28;19916;-83
2024/01/20 08:22:36;;;;;;;;;;;77.20;2227.20;;;;;;5009223;28;20017;-81
2024/01/20 08:25:04;;;;;;;;;;;77.20;2227.20;;;;;;5013750;28;19927;-88
2024/01/20 08:27:30;;;;;;;;;;;77.30;2227.20;;;;;;5009856;28;20273;-84
2024/01/20 08:29:56;;;;;;;;;;;77.20;2227.20;;;;;;5009219;28;19976;-80
2024/01/20 08:32:21;;;;;;;;;;;77.20;2227.20;;;;;;5011231;28;19914;-80
2024/01/20 08:34:47;;;;;;;;;;;77.30;2227.20;;;;;;5013440;28;19910;-81
2024/01/20 08:37:12;;;;;;;;;;;77.40;2227.20;;;;;;5010164;28;19943;-82
2024/01/20 08:39:38;;;;;;;;;;;77.30;2227.20;;;;;;5006961;28;19910;-83
2024/01/20 08:42:04;;;;;;;;;;;77.20;2227.20;;;;;;5013511;28;19909;-80
2024/01/20 08:44:32;;;;;;;;;;;77.20;2227.20;;;;;;5011035;28;19926;-77
2024/01/20 08:46:58;;;;;;;;;;;77.40;2227.20;;;;;;5012053;28;19913;-80
2024/01/20 08:49:23;;;;;;;;;;;77.30;2227.20;;;;;;5002658;28;20053;-80
2024/01/20 08:51:49;;;;;;;;;;;77.10;2227.20;;;;;;5011932;28;19910;-79
2024/01/20 08:54:15;;;;;;;;;;;77.20;2227.20;;;;;;5008009;28;20420;-79
2024/01/20 08:56:41;;;;;;;;;;;77.30;2227.20;;;;;;5006690;28;19925;-79
2024/01/20 08:59:09;;;;;;;;;;;77.50;2227.20;;;;;;5011240;28;20218;-81
2024/01/20 09:01:34;;;;;;;;;;;77.40;2227.20;;;;;;5007653;28;19953;-82
2024/01/20 09:04:01;;;;;;;;;;;77.50;2227.20;;;;;;5012902;28;19929;-77
2024/01/20 09:06:27;;;;;;;;;;;77.50;2227.20;;;;;;5009030;28;19914;-82
2024/01/20 09:08:52;;;;;;;;;;;77.50;2227.20;;;;;;5003751;28;19921;-81
2024/01/20 09:11:18;;;;;;;;;;;77.30;2227.20;;;;;;5011497;28;19909;-78
2024/01/20 09:13:43;;;;;;;;;;;77.40;2227.20;;;;;;5009567;28;20013;-81
2024/01/20 09:16:09;;;;;;;;;;;77.40;2227.20;;;;;;5010588;28;19967;-82
2024/01/20 09:18:34;;;;;;;;;;;77.40;2227.20;;;;;;5007249;28;20349;-78
2024/01/20 09:21:00;;;;;;;;;;;77.40;2227.20;;;;;;5012111;28;19914;-79
2024/01/20 09:23:26;;;;;;;;;;;77.50;2227.20;;;;;;5012397;28;19924;-84
2024/01/20 09:25:51;;;;;;;;;;;77.70;2227.20;;;;;;5007718;28;19914;-88
2024/01/20 09:28:17;;;;;;;;;;;102.50;2227.20;;;;;;5012303;28;19921;-80
2024/01/20 09:30:43;;;;;;;;;;;102.50;2227.20;;;;;;5012042;28;19914;-83
2024/01/20 09:33:08;;;;;;;;;;;102.50;2227.20;;;;;;4998432;28;19921;-82
2024/01/20 09:35:34;;;;;;;;;;;102.60;2227.20;;;;;;5006317;28;19957;-83
2024/01/20 09:37:59;;;;;;;;;;;102.60;2227.20;;;;;;5025563;28;19916;-83
2024/01/20 09:40:25;;;;;;;;;;;102.60;2227.20;;;;;;5003416;28;19917;-83
2024/01/20 09:42:51;;;;;;;;;;;102.70;2227.20;;;;;;5028189;28;20270;-81
2024/01/20 09:45:17;;;;;;;;;;;102.80;2227.20;;;;;;5012507;28;20266;-81
2024/01/20 09:47:42;;;;;;;;;;;103.20;2227.20;;;;;;5008139;28;19913;-80
2024/01/20 09:50:08;;;;;;;;;;;128.10;2252.80;;;;;;5006189;28;19909;-79
2024/01/20 09:52:38;;;;;;;;;;;128.20;2252.80;;;;;;5010795;28;19909;-78
2024/01/20 09:55:23;;;;;;;;;;;128.40;2252.80;;;;;;5009729;28;19967;-77
2024/01/20 09:57:49;;;;;;;;;;;128.50;2252.80;;;;;;5005192;28;19930;-77
2024/01/20 10:00:16;;;;;;;;;;;128.70;2252.80;;;;;;5005958;28;19976;-78
2024/01/20 10:02:45;;;;;;;;;;;153.70;2252.80;;;;;;5002634;28;19917;-76
2024/01/20 10:05:12;;;;;;;;;;;153.80;2252.80;;;;;;5006615;28;20439;-76
2024/01/20 10:07:37;;;;;;;;;;;154.00;2252.80;;;;;;5014688;28;19917;-77
2024/01/20 10:10:03;;;;;;;;;;;154.20;2252.80;;;;;;5006345;28;20270;-76
2024/01/20 10:12:29;;;;;;;;;;;179.30;2252.80;;;;;;5013506;28;19999;-79
2024/01/20 10:14:54;;;;;;;;;;;179.60;2252.80;;;;;;5022346;28;19917;-75
2024/01/20 10:17:20;;;;;;;;;;;179.60;2252.80;;;;;;5017534;28;20497;-77
2024/01/20 10:19:46;;;;;;;;;;;;;;;;;;4999131;28;19925;-77
2024/01/20 10:22:12;;;;;;;;;;;205.10;2124.80;;;;;;5034335;28;19916;-77
2024/01/20 10:24:50;;;;;;;;;;;205.60;2099.20;;;;;;5014587;28;20362;-80
2024/01/20 10:27:17;;;;;;;;;;;205.70;2073.60;;;;;;5006212;28;19924;-78
2024/01/20 10:29:43;;;;;;;;;;;230.50;1996.80;;;;;;5025197;28;19924;-77
2024/01/20 10:32:08;;;;;;;;;;;230.60;1920.00;;;;;;5005957;28;20004;-77
2024/01/20 10:34:34;;;;;;;;;;;230.80;1945.60;;;;;;5006039;28;19916;-78
2024/01/20 10:37:01;;;;;;;;;;;230.70;1894.40;;;;;;5000514;28;19918;-76
2024/01/20 10:39:27;;;;;;;;;;;230.50;1894.40;;;;;;5003662;28;20404;-79
2024/01/20 10:41:53;;;;;;;;;;;230.80;1894.40;;;;;;5006145;28;19996;-80
2024/01/20 10:44:20;;;;;;;;;;;230.80;1945.60;;;;;;4999437;28;19964;-78
2024/01/20 10:46:48;;;;;;;;;;;230.50;1920.00;;;;;;5020434;28;19910;-78
2024/01/20 10:49:16;;;;;;;;;;;230.60;1894.40;;;;;;5011627;28;20397;-78
2024/01/20 10:51:43;;;;;;;;;;;230.90;1817.60;;;;;;4990931;28;20088;-78
2024/01/20 10:54:08;;;;;;;;;;;231.00;1868.80;;;;;;4995957;28;19910;-78
2024/01/20 10:56:35;;;;;;;;;;;256.00;1843.20;;;;;;5008665;28;19976;-77
2024/01/20 10:59:14;;;;;;;;;;;231.20;1817.60;;;;;;5011596;28;19913;-78
2024/01/20 11:01:41;;;;;;;;;;;231.00;1817.60;;;;;;5023547;28;20269;-77
2024/01/20 11:04:07;;;;;;;;;;;256.00;1817.60;;;;;;5016387;28;19924;-79
2024/01/20 11:06:34;;;;;;;;;;;231.20;1843.20;;;;;;5006238;28;19914;-79
2024/01/20 11:09:01;;;;;;;;;;;256.20;1843.20;;;;;;5000560;28;19910;-78
2024/01/20 11:11:27;;;;;;;;;;;256.10;1792.00;;;;;;5008434;28;19920;-77
2024/01/20 11:13:57;;;;;;;;;;;256.30;1766.40;;;;;;5010327;28;19919;-80
2024/01/20 11:16:23;;;;;;;;;;;256.20;1792.00;;;;;;5008248;28;19925;-79
2024/01/20 11:18:48;;;;;;;;;;;256.20;1792.00;;;;;;5007664;28;19909;-79
2024/01/20 11:21:15;;;;;;;;;;;256.10;1817.60;;;;;;5013569;28;19910;-78
2024/01/20 11:23:46;;;;;;;;;;;256.10;1792.00;;;;;;5037699;28;19910;-78
2024/01/20 11:26:12;;;;;;;;;;;256.10;1817.60;;;;;;5013082;28;19936;-78
2024/01/20 11:28:40;;;;;;;;;;;256.20;1817.60;;;;;;5010657;28;20417;-79
2024/01/20 11:31:16;;;;;;;;;;;256.20;1766.40;;;;;;5000119;28;19917;-79
2024/01/20 11:33:42;;;;;;;;;;;256.10;1817.60;;;;;;5012291;28;20415;-78
2024/01/20 11:36:08;;;;;;;;;;;231.30;1792.00;;;;;;5000895;28;19925;-79
2024/01/20 11:38:34;;;;;;;;;;;231.30;1792.00;;;;;;5008051;28;19935;-81
2024/01/20 11:41:00;;;;;;;;;;;231.20;1843.20;;;;;;5011090;28;20936;-84
2024/01/20 11:43:26;;;;;;;;;;;231.10;1843.20;;;;;;5009366;28;20354;-84
2024/01/20 11:45:52;;;;;;;;;;;231.00;1868.80;;;;;;4999390;28;19917;-79
2024/01/20 11:48:21;;;;;;;;;;;230.60;1868.80;;;;;;5013770;28;20412;-85
2024/01/20 11:50:47;;;;;;;;;;;230.80;1843.20;;;;;;5006026;28;19910;-86
2024/01/20 11:53:13;;;;;;;;;;;230.70;1843.20;;;;;;5010968;28;19960;-81
2024/01/20 11:55:38;;;;;;;;;;;256.10;1868.80;;;;;;5013362;28;19922;-79
2024/01/20 11:58:04;;;;;;;;;;;230.60;1817.60;;;;;;5012531;28;19968;-77
2024/01/20 12:00:29;;;;;;;;;;;230.50;1843.20;;;;;;5010137;28;19964;-75
2024/01/20 12:02:55;;;;;;;;;;;230.50;1894.40;;;;;;5004949;28;20365;-75
2024/01/20 12:05:21;;;;;;;;;;;230.70;1868.80;;;;;;5013235;28;19916;-77
2024/01/20 12:07:47;;;;;;;;;;;230.60;1894.40;;;;;;5010653;28;20420;-77
2024/01/20 12:10:16;;;;;;;;;;;205.70;1894.40;;;;;;5012664;28;20262;-79
2024/01/20 12:12:42;;;;;;;;;;;205.50;1894.40;;;;;;5005425;28;19910;-77
2024/01/20 12:15:08;;;;;;;;;;;205.50;1920.00;;;;;;5008664;28;19917;-77
2024/01/20 12:17:33;;;;;;;;;;;205.50;1945.60;;;;;;5010650;28;19968;-78
2024/01/20 12:19:59;;;;;;;;;;;205.70;1894.40;;;;;;5002890;28;19968;-78
2024/01/20 12:22:24;;;;;;;;;;;230.40;1945.60;;;;;;5007534;28;20349;-80
2024/01/20 12:24:51;;;;;;;;;;;230.40;1971.20;;;;;;5012643;28;19913;-80
2024/01/20 12:27:18;;;;;;;;;;;205.60;1996.80;;;;;;5009234;28;19921;-82
2024/01/20 12:29:44;;;;;;;;;;;205.40;1920.00;;;;;;5043767;28;19914;-80
2024/01/20 12:32:10;;;;;;;;;;;205.30;1971.20;;;;;;5006709;28;19925;-78
2024/01/20 12:34:35;;;;;;;;;;;205.30;2022.40;;;;;;5011834;28;20316;-82
2024/01/20 12:37:01;;;;;;;;;;;205.10;2048.00;;;;;;5012434;28;19944;-79
2024/01/20 12:39:26;;;;;;;;;;;205.10;1971.20;;;;;;5013001;28;19909;-80
2024/01/20 12:41:53;;;;;;;;;;;204.90;2022.40;;;;;;5003336;28;20373;-77
2024/01/20 12:44:20;;;;;;;;;;;204.80;1996.80;;;;;;5011692;28;19914;-77
2024/01/20 12:46:46;;;;;;;;;;;180.10;1971.20;;;;;;5024356;28;20379;-78
2024/01/20 12:49:12;;;;;;;;;;;179.90;2022.40;;;;;;4999902;28;19933;-77
2024/01/20 12:51:39;;;;;;;;;;;179.70;2073.60;;;;;;5009485;28;19909;-76
2024/01/20 12:54:06;;;;;;;;;;;179.70;2176.00;;;;;;5009933;28;19910;-78
2024/01/20 12:56:32;;;;;;;;;;;179.60;2150.40;;;;;;5022250;28;19974;-77
2024/01/20 12:58:57;;;;;;;;;;;179.40;2124.80;;;;;;5025806;28;19989;-77
2024/01/20 13:01:23;;;;;;;;;;;179.40;2150.40;;;;;;5030635;28;19952;-77
2024/01/20 13:03:52;;;;;;;;;;;179.40;2176.00;;;;;;5027969;28;19983;-78
2024/01/20 13:06:18;;;;;;;;;;;179.40;2176.00;;;;;;5011336;28;19913;-78
2024/01/20 13:08:44;;;;;;;;;;;179.40;2252.80;;;;;;5014929;28;19917;-79
2024/01/20 13:11:10;;;;;;;;;;;179.40;2252.80;;;;;;5016023;28;19909;-79
2024/01/20 13:13:36;;;;;;;;;;;179.50;2252.80;;;;;;5030429;28;19913;-82
2024/01/20 13:16:02;;;;;;;;;;;179.40;2252.80;;;;;;5014894;28;20331;-81
2024/01/20 13:18:27;;;;;;;;;;;179.40;2252.80;;;;;;5036348;28;19960;-81
2024/01/20 13:20:53;;;;;;;;;;;179.50;2252.80;;;;;;5007306;28;19913;-77
2024/01/20 13:23:19;;;;;;;;;;;179.20;2252.80;;;;;;5025378;28;19936;-84
2024/01/20 13:25:47;;;;;;;;;;;154.50;2252.80;;;;;;5022831;28;19913;-79
2024/01/20 13:28:14;;;;;;;;;;;154.40;2201.60;;;;;;5007680;28;19924;-77
2024/01/20 13:30:41;;;;;;;;;;;154.40;2201.60;;;;;;5013335;28;20365;-80
2024/01/20 13:33:07;;;;;;;;;;;154.20;2252.80;;;;;;5027217;28;19960;-77
2024/01/20 13:35:32;;;;;;;;;;;154.10;2252.80;;;;;;5035333;28;19913;-84
2024/01/20 13:37:58;;;;;;;;;;;154.20;2252.80;;;;;;5018256;28;19948;-86
2024/01/20 13:40:25;;;;;;;;;;;154.10;2252.80;;;;;;5011224;28;19909;-81
2024/01/20 13:42:51;;;;;;;;;;;154.10;2252.80;;;;;;5013936;28;19910;-86